Time;durP1;ratioP1;P1;durP2;ratioP2;P2;SDS_P1;SDS_P2;PMS_P1;PMS_P2;Temp;Humidity;BMP_temperature;BMP_pressure;BME280_temperature;BME280_humidity;BME280_pressure;Samples;Min_cycle;Max_cycle;Signal;HPM_P1;HPM_P2
2021/11/09 00:00:51;;;;;;;3.08;2.30;;;20.60;57.30;;;;;;5008516;28;20205;-44
2021/11/09 00:03:21;;;;;;;3.83;2.10;;;20.60;57.20;;;;;;5008777;28;20587;-43
2021/11/09 00:05:53;;;;;;;3.00;2.40;;;20.70;57.10;;;;;;5009056;28;20724;-42
2021/11/09 00:08:26;;;;;;;2.58;2.15;;;20.60;57.00;;;;;;5008018;28;20221;-43
2021/11/09 00:10:57;;;;;;;2.40;2.08;;;20.70;57.00;;;;;;5009365;28;20236;-44
2021/11/09 00:13:29;;;;;;;2.78;2.13;;;20.70;56.90;;;;;;5009447;28;20814;-43
2021/11/09 00:15:59;;;;;;;2.63;2.25;;;20.70;56.90;;;;;;5009847;28;20201;-43
2021/11/09 00:18:30;;;;;;;3.33;2.40;;;20.70;56.90;;;;;;5007964;28;20204;-43
2021/11/09 00:21:01;;;;;;;2.65;2.45;;;20.70;56.70;;;;;;5009001;28;20284;-44
2021/11/09 00:23:32;;;;;;;3.22;2.10;;;20.80;56.70;;;;;;5007800;28;20233;-43
2021/11/09 00:26:03;;;;;;;2.30;2.10;;;20.80;56.70;;;;;;5008891;28;20284;-42
2021/11/09 00:28:35;;;;;;;2.80;2.50;;;20.80;56.70;;;;;;5007195;28;20223;-43
2021/11/09 00:31:05;;;;;;;2.88;2.20;;;20.80;56.70;;;;;;5008387;28;21591;-42
2021/11/09 00:33:36;;;;;;;2.75;2.08;;;20.80;56.60;;;;;;5007127;28;20319;-42
2021/11/09 00:36:08;;;;;;;2.80;2.20;;;20.80;56.60;;;;;;5007032;28;20673;-44
2021/11/09 00:38:38;;;;;;;2.75;2.03;;;20.80;56.50;;;;;;5007843;28;20201;-43
2021/11/09 00:41:09;;;;;;;2.78;1.85;;;20.80;56.50;;;;;;5007213;28;20291;-42
2021/11/09 00:43:42;;;;;;;2.58;2.08;;;20.80;56.40;;;;;;5009080;28;20229;-44
2021/11/09 00:46:12;;;;;;;3.75;2.10;;;20.80;56.40;;;;;;5008275;28;20196;-44
2021/11/09 00:48:43;;;;;;;3.15;2.20;;;20.90;56.40;;;;;;5007323;28;20691;-45
2021/11/09 00:51:13;;;;;;;2.08;1.88;;;20.90;56.40;;;;;;5007798;28;20201;-45
2021/11/09 00:53:44;;;;;;;3.03;2.35;;;20.90;56.40;;;;;;5007324;28;20767;-44
2021/11/09 00:56:14;;;;;;;2.47;2.05;;;20.90;56.40;;;;;;5007227;28;20292;-42
2021/11/09 00:58:46;;;;;;;2.42;2.17;;;20.90;56.40;;;;;;5006770;28;20292;-45
2021/11/09 01:01:17;;;;;;;2.83;2.05;;;20.90;56.30;;;;;;5006976;28;20271;-44
2021/11/09 01:03:47;;;;;;;2.40;2.20;;;21.00;56.40;;;;;;5008037;28;20215;-46
2021/11/09 01:06:18;;;;;;;2.75;2.00;;;21.00;56.30;;;;;;5008571;28;20196;-46
2021/11/09 01:08:48;;;;;;;2.58;2.00;;;21.00;56.30;;;;;;5007424;28;20220;-45
2021/11/09 01:11:19;;;;;;;1.80;1.70;;;21.00;56.40;;;;;;5008527;28;20203;-46
2021/11/09 01:13:52;;;;;;;2.85;1.90;;;21.00;56.30;;;;;;5007215;28;20224;-43
2021/11/09 01:16:23;;;;;;;2.30;2.10;;;21.00;56.30;;;;;;5006748;28;20696;-42
2021/11/09 01:18:55;;;;;;;2.90;2.42;;;21.00;56.30;;;;;;5007278;28;20201;-46
2021/11/09 01:21:26;;;;;;;2.30;2.10;;;21.00;56.30;;;;;;5007270;28;20287;-46
2021/11/09 01:23:58;;;;;;;2.22;2.03;;;21.00;56.50;;;;;;5006584;28;20299;-45
2021/11/09 01:26:28;;;;;;;2.85;2.10;;;21.00;56.40;;;;;;5006340;28;20625;-43
2021/11/09 01:29:02;;;;;;;2.92;2.20;;;21.10;56.30;;;;;;5007068;28;20307;-44
2021/11/09 01:31:32;;;;;;;2.33;2.10;;;21.10;56.30;;;;;;5006213;28;20284;-44
2021/11/09 01:34:04;;;;;;;2.45;2.10;;;21.10;56.20;;;;;;5006972;28;20761;-43
2021/11/09 01:36:35;;;;;;;2.33;1.83;;;21.10;56.20;;;;;;5007075;28;20276;-47
2021/11/09 01:39:07;;;;;;;2.63;2.08;;;21.10;56.20;;;;;;5006418;28;20193;-45
2021/11/09 01:41:38;;;;;;;2.92;2.08;;;21.10;56.10;;;;;;5006886;28;20284;-44
2021/11/09 01:44:11;;;;;;;1.92;1.73;;;21.10;56.10;;;;;;5006059;28;20224;-48
2021/11/09 01:46:42;;;;;;;2.13;1.92;;;21.10;56.10;;;;;;5005129;28;20820;-43
2021/11/09 01:49:12;;;;;;;2.20;2.00;;;21.20;56.20;;;;;;5006917;28;20319;-51
2021/11/09 01:51:43;;;;;;;2.50;2.22;;;21.20;56.20;;;;;;5007418;28;20292;-44
2021/11/09 01:54:13;;;;;;;2.08;1.83;;;21.20;56.20;;;;;;5007017;28;20307;-42
2021/11/09 01:56:44;;;;;;;2.13;1.92;;;21.20;56.20;;;;;;5006465;28;20288;-47
2021/11/09 01:59:16;;;;;;;2.10;1.90;;;21.20;56.20;;;;;;5006187;28;20436;-44
2021/11/09 02:01:48;;;;;;;2.78;1.85;;;21.20;56.30;;;;;;5006120;28;20291;-43
2021/11/09 02:04:18;;;;;;;2.40;2.17;;;21.20;56.40;;;;;;5006613;28;20650;-48
2021/11/09 02:06:49;;;;;;;2.28;2.08;;;21.20;56.30;;;;;;5003996;28;20205;-42
2021/11/09 02:09:20;;;;;;;2.30;2.00;;;21.20;56.30;;;;;;5007031;28;20315;-42
2021/11/09 02:11:52;;;;;;;2.22;2.00;;;21.20;56.10;;;;;;5006240;28;20904;-42
2021/11/09 02:14:24;;;;;;;2.75;2.22;;;21.20;56.10;;;;;;5006811;28;20323;-42
2021/11/09 02:16:55;;;;;;;4.05;2.60;;;21.20;56.20;;;;;;5005051;28;20236;-42
2021/11/09 02:19:26;;;;;;;6.85;3.00;;;21.30;56.40;;;;;;5005603;28;20300;-43
2021/11/09 02:21:58;;;;;;;3.80;2.70;;;21.30;56.60;;;;;;5005096;28;20236;-42
2021/11/09 02:24:29;;;;;;;5.18;3.15;;;21.30;56.70;;;;;;5006993;28;20662;-47
2021/11/09 02:27:00;;;;;;;5.97;3.33;;;21.30;56.70;;;;;;5007076;28;20291;-45
2021/11/09 02:29:30;;;;;;;5.57;3.28;;;21.40;56.90;;;;;;5006079;28;20224;-43
2021/11/09 02:32:01;;;;;;;3.03;2.50;;;21.40;57.00;;;;;;5005534;28;20288;-45
2021/11/09 02:34:31;;;;;;;4.53;2.85;;;21.40;56.90;;;;;;5006665;28;20303;-45
2021/11/09 02:37:03;;;;;;;4.85;3.20;;;21.40;56.80;;;;;;5006181;28;20207;-42
2021/11/09 02:39:34;;;;;;;6.82;3.08;;;21.40;56.80;;;;;;5006491;28;20201;-43
2021/11/09 02:42:10;;;;;;;4.18;3.00;;;21.40;56.70;;;;;;5007518;28;20271;-43
2021/11/09 02:44:50;;;;;;;3.60;2.90;;;21.40;56.80;;;;;;5006261;28;20286;-43
2021/11/09 02:47:23;;;;;;;4.90;2.97;;;21.50;56.70;;;;;;5006134;28;20196;-42
2021/11/09 02:49:59;;;;;;;5.85;3.15;;;21.50;56.80;;;;;;5004257;28;20221;-42
2021/11/09 02:52:32;;;;;;;4.63;2.65;;;21.50;56.80;;;;;;5004405;28;20270;-43
2021/11/09 02:55:06;;;;;;;5.38;3.00;;;21.50;56.70;;;;;;5005770;28;20292;-44
2021/11/09 02:57:42;;;;;;;4.10;3.25;;;21.50;56.70;;;;;;5004551;28;20682;-41
2021/11/09 03:00:20;;;;;;;5.25;3.03;;;21.50;56.70;;;;;;5005086;28;20240;-45
2021/11/09 03:02:54;;;;;;;5.35;3.13;;;21.50;56.80;;;;;;5005924;28;20213;-42
2021/11/09 03:05:28;;;;;;;4.35;2.85;;;21.50;56.90;;;;;;5006114;28;20279;-42
2021/11/09 03:08:10;;;;;;;4.82;3.38;;;21.50;56.90;;;;;;5005016;28;20200;-42
2021/11/09 03:10:45;;;;;;;4.82;2.85;;;21.60;56.90;;;;;;5006859;28;20225;-45
2021/11/09 03:13:15;;;;;;;3.58;2.80;;;21.60;56.90;;;;;;5005552;28;20224;-43
2021/11/09 03:15:46;;;;;;;3.05;2.38;;;21.60;56.90;;;;;;5004528;28;20201;-43
2021/11/09 03:18:18;;;;;;;3.95;3.10;;;21.60;56.80;;;;;;5005728;28;20288;-42
2021/11/09 03:20:54;;;;;;;3.70;2.78;;;21.60;56.80;;;;;;5007597;28;20232;-44
2021/11/09 03:40:27;;;;;;;3.72;2.90;;;21.60;56.80;;;;;;5009450;28;20557;-41
2021/11/09 03:45:45;;;;;;;3.33;2.90;;;21.60;56.70;;;;;;5008800;28;20687;-42
2021/11/09 03:48:17;;;;;;;4.47;2.88;;;21.60;56.80;;;;;;5008421;28;20200;-41
2021/11/09 03:50:49;;;;;;;4.30;2.72;;;21.60;56.80;;;;;;5009181;28;20318;-41
2021/11/09 03:53:22;;;;;;;2.78;2.58;;;21.60;56.80;;;;;;5009957;28;20209;-41
2021/11/09 03:56:09;;;;;;;3.85;2.70;;;21.60;56.80;;;;;;5009809;28;20193;-41
2021/11/09 03:58:42;;;;;;;5.25;2.88;;;21.60;56.80;;;;;;5008716;28;20204;-44
2021/11/09 04:01:15;;;;;;;4.05;2.85;;;21.60;56.80;;;;;;5007670;28;20196;-42
2021/11/09 04:06:47;;;;;;;2.30;2.10;;;21.60;56.80;;;;;;5101986;27;20540;-35
2021/11/09 04:09:24;;;;;;;3.65;1.85;;;21.60;56.80;;;;;;5100847;28;20197;-41
2021/11/09 04:12:02;;;;;;;3.33;1.92;;;21.60;56.60;;;;;;5100780;28;20197;-39
2021/11/09 04:14:37;;;;;;;2.97;1.80;;;21.50;56.60;;;;;;5100792;28;20221;-45
2021/11/09 04:17:12;;;;;;;2.65;1.80;;;21.50;56.60;;;;;;5102242;28;20190;-41
2021/11/09 04:19:47;;;;;;;1.65;1.42;;;21.40;56.60;;;;;;5101789;28;20197;-43
2021/11/09 04:25:39;;;;;;;2.08;1.80;;;21.30;56.60;;;;;;5096480;28;20294;-44
2021/11/09 04:28:13;;;;;;;2.17;1.85;;;21.30;56.80;;;;;;5098639;28;20292;-41
2021/11/09 04:31:03;;;;;;;2.00;1.80;;;21.30;57.00;;;;;;5099357;28;20189;-41
2021/11/09 05:02:32;;;;;;;4.15;2.63;;;21.30;56.90;;;;;;5056942;28;20222;-44
2021/11/09 05:10:44;;;;;;;3.25;2.20;;;21.30;56.90;;;;;;5065897;28;20202;-45
2021/11/09 05:13:17;;;;;;;2.75;2.17;;;21.30;57.00;;;;;;5099929;28;20210;-42
2021/11/09 05:15:48;;;;;;;4.05;2.85;;;21.30;57.10;;;;;;5099858;28;20206;-44
2021/11/09 05:18:18;;;;;;;2.63;2.35;;;21.30;57.10;;;;;;5085638;28;20206;-43
2021/11/09 05:20:49;;;;;;;2.97;2.55;;;21.30;57.00;;;;;;5083659;28;20601;-41
2021/11/09 05:23:20;;;;;;;3.00;2.45;;;21.30;57.10;;;;;;5085445;28;20223;-46
2021/11/09 05:25:51;;;;;;;2.83;2.50;;;21.30;57.30;;;;;;5086468;28;20283;-44
2021/11/09 05:28:24;;;;;;;2.58;2.38;;;21.30;57.00;;;;;;5085235;28;20239;-44
2021/11/09 05:30:55;;;;;;;2.78;2.58;;;21.30;57.00;;;;;;5083063;28;20610;-43
2021/11/09 05:33:26;;;;;;;2.58;2.38;;;21.30;57.00;;;;;;5085523;28;20218;-44
2021/11/09 05:35:57;;;;;;;2.45;2.25;;;21.30;57.00;;;;;;5085318;28;20190;-41
2021/11/09 05:38:30;;;;;;;3.25;2.58;;;21.30;57.00;;;;;;5084979;28;20606;-42
2021/11/09 05:41:07;;;;;;;3.55;2.40;;;21.30;56.90;;;;;;5083875;28;20221;-41
2021/11/09 05:43:40;;;;;;;2.80;2.60;;;21.30;57.00;;;;;;5085191;28;20222;-42
2021/11/09 05:46:10;;;;;;;3.35;2.80;;;21.30;56.90;;;;;;5088834;28;20283;-46
2021/11/09 05:48:41;;;;;;;2.70;2.50;;;21.30;56.90;;;;;;5085697;28;20190;-43
2021/11/09 05:51:13;;;;;;;2.67;2.47;;;21.30;56.90;;;;;;5082907;28;20190;-44
2021/11/09 05:53:43;;;;;;;2.80;2.33;;;21.30;56.80;;;;;;5085602;28;20218;-43
2021/11/09 05:56:14;;;;;;;2.90;2.60;;;21.30;56.70;;;;;;5083183;28;20201;-44
2021/11/09 05:58:47;;;;;;;2.78;2.58;;;21.30;56.60;;;;;;5083973;28;20198;-46
2021/11/09 06:01:17;;;;;;;3.13;2.70;;;21.30;56.80;;;;;;5085041;28;20221;-42
2021/11/09 06:03:48;;;;;;;2.80;2.60;;;21.30;56.80;;;;;;5086844;28;20225;-45
2021/11/09 06:06:19;;;;;;;2.90;2.60;;;21.30;56.70;;;;;;5085784;28;20226;-45
2021/11/09 06:08:50;;;;;;;2.75;2.55;;;21.30;56.60;;;;;;5083830;28;20264;-43
2021/11/09 06:11:21;;;;;;;3.05;2.75;;;21.30;56.70;;;;;;5084512;28;20198;-41
2021/11/09 06:13:53;;;;;;;3.05;2.85;;;21.30;56.60;;;;;;5083433;28;20299;-41
2021/11/09 06:16:24;;;;;;;3.35;3.08;;;21.30;56.60;;;;;;5084101;28;20225;-42
2021/11/09 06:18:55;;;;;;;3.20;2.55;;;21.30;56.60;;;;;;5084372;28;20775;-42
2021/11/09 06:21:26;;;;;;;2.95;2.75;;;21.30;56.60;;;;;;5085317;28;20586;-42
2021/11/09 06:23:57;;;;;;;3.03;2.83;;;21.30;56.60;;;;;;5082499;28;20574;-42
2021/11/09 06:26:28;;;;;;;3.00;2.80;;;21.30;56.60;;;;;;5082297;28;20221;-44
2021/11/09 06:29:00;;;;;;;3.03;2.83;;;21.30;56.60;;;;;;5067178;28;20190;-45
2021/11/09 06:31:33;;;;;;;3.35;3.05;;;21.30;56.50;;;;;;5084456;28;20218;-43
2021/11/09 06:34:04;;;;;;;2.92;2.45;;;21.30;56.50;;;;;;5085962;28;20219;-47
2021/11/09 06:36:34;;;;;;;3.20;2.90;;;21.30;56.50;;;;;;5085007;28;20251;-46
2021/11/09 06:39:05;;;;;;;3.67;2.90;;;21.30;56.40;;;;;;5084359;28;20194;-42
2021/11/09 06:41:36;;;;;;;2.92;2.72;;;21.30;56.40;;;;;;5082353;28;20198;-41
2021/11/09 06:44:08;;;;;;;2.90;2.60;;;21.30;56.40;;;;;;5083720;28;20210;-42
2021/11/09 06:46:39;;;;;;;3.30;3.00;;;21.30;56.40;;;;;;5078631;28;20218;-46
2021/11/09 06:49:10;;;;;;;6.18;3.30;;;21.30;56.40;;;;;;5083636;28;20202;-46
2021/11/09 06:51:41;;;;;;;3.53;3.22;;;21.20;56.40;;;;;;5085541;28;20231;-45
2021/11/09 06:54:12;;;;;;;3.00;2.80;;;21.20;56.40;;;;;;5085386;28;20218;-42
2021/11/09 06:56:43;;;;;;;2.97;2.72;;;21.20;56.40;;;;;;5083978;28;20642;-43
2021/11/09 06:59:18;;;;;;;3.15;2.78;;;21.20;56.40;;;;;;5070964;28;20202;-42
2021/11/09 07:01:49;;;;;;;3.17;2.97;;;21.20;56.40;;;;;;5082727;28;20280;-46
2021/11/09 07:04:20;;;;;;;3.03;2.72;;;21.20;56.40;;;;;;5078560;28;20235;-44
2021/11/09 07:06:51;;;;;;;3.17;2.88;;;21.20;56.40;;;;;;5083177;28;20222;-49
2021/11/09 07:09:22;;;;;;;3.25;2.95;;;21.20;56.30;;;;;;5085938;28;20202;-41
2021/11/09 07:11:53;;;;;;;2.70;2.50;;;21.20;56.30;;;;;;5086481;28;20198;-46
2021/11/09 07:14:25;;;;;;;5.78;4.20;;;21.20;56.30;;;;;;5083602;28;20217;-42
2021/11/09 07:16:56;;;;;;;5.20;4.30;;;21.20;57.40;;;;;;5081277;28;20194;-46
2021/11/09 07:19:27;;;;;;;5.88;4.15;;;21.20;57.90;;;;;;5082750;28;20198;-43
2021/11/09 07:21:57;;;;;;;5.75;3.58;;;21.30;58.00;;;;;;5083146;28;20190;-43
2021/11/09 07:24:30;;;;;;;5.38;4.38;;;21.20;57.80;;;;;;5080434;28;20341;-42
2021/11/09 07:27:01;;;;;;;5.35;4.20;;;21.20;57.80;;;;;;5085206;28;20323;-46
2021/11/09 07:29:34;;;;;;;5.13;4.30;;;21.20;57.80;;;;;;5080381;28;20198;-43
2021/11/09 07:32:05;;;;;;;4.30;3.25;;;21.30;57.60;;;;;;5074412;28;20202;-43
2021/11/09 07:34:35;;;;;;;4.30;3.90;;;21.30;57.50;;;;;;5083948;28;20270;-44
2021/11/09 07:37:06;;;;;;;5.13;3.83;;;21.20;57.50;;;;;;5083334;28;20604;-43
2021/11/09 07:39:37;;;;;;;4.15;3.75;;;21.20;57.30;;;;;;5083023;28;20249;-44
2021/11/09 07:42:09;;;;;;;4.18;3.78;;;21.20;57.20;;;;;;5085368;28;20255;-45
2021/11/09 07:44:42;;;;;;;4.10;3.47;;;21.20;57.20;;;;;;5084778;28;20217;-45
2021/11/09 07:47:12;;;;;;;3.95;3.58;;;21.20;57.20;;;;;;5085044;28;20225;-42
2021/11/09 07:49:43;;;;;;;4.03;3.60;;;21.20;57.20;;;;;;5082052;28;20680;-42
2021/11/09 07:52:14;;;;;;;5.55;3.78;;;21.20;57.10;;;;;;5082631;28;20285;-42
2021/11/09 07:54:48;;;;;;;5.88;3.63;;;21.20;57.10;;;;;;5082161;28;20222;-42
2021/11/09 07:57:19;;;;;;;4.22;3.53;;;21.20;56.90;;;;;;5082456;28;20726;-42
2021/11/09 07:59:55;;;;;;;4.15;3.75;;;21.20;56.80;;;;;;5084155;28;20647;-42
2021/11/09 08:02:33;;;;;;;3.67;3.38;;;21.20;56.80;;;;;;5062366;28;20225;-42
2021/11/09 08:05:05;;;;;;;3.97;3.58;;;21.20;56.80;;;;;;5084582;28;20248;-42
2021/11/09 08:07:48;;;;;;;3.30;3.00;;;21.10;56.70;;;;;;5080316;28;20222;-42
2021/11/09 08:10:18;;;;;;;3.83;3.50;;;21.20;56.70;;;;;;5081818;28;20193;-43
2021/11/09 08:12:49;;;;;;;4.72;3.55;;;21.10;56.60;;;;;;5081250;28;20705;-43
2021/11/09 08:15:22;;;;;;;3.72;3.40;;;21.10;56.60;;;;;;5080054;28;20213;-43
2021/11/09 08:17:52;;;;;;;5.88;3.75;;;21.10;56.70;;;;;;5081911;28;20203;-43
2021/11/09 08:20:23;;;;;;;3.17;2.90;;;21.10;56.60;;;;;;5084560;28;20237;-43
2021/11/09 08:22:54;;;;;;;4.75;3.80;;;21.10;56.70;;;;;;5083961;28;20677;-45
2021/11/09 08:25:25;;;;;;;4.80;3.47;;;21.10;56.70;;;;;;5082868;28;20194;-44
2021/11/09 08:27:56;;;;;;;4.57;3.85;;;21.10;56.80;;;;;;5082247;28;20204;-44
2021/11/09 08:30:28;;;;;;;4.85;3.33;;;21.10;56.80;;;;;;5080289;28;20195;-41
2021/11/09 08:33:00;;;;;;;3.45;3.22;;;21.10;56.80;;;;;;5071311;28;20215;-44
2021/11/09 08:35:31;;;;;;;4.70;3.33;;;21.10;56.70;;;;;;5085152;28;20269;-44
2021/11/09 08:38:01;;;;;;;3.63;3.33;;;21.10;56.70;;;;;;5083128;28;20266;-43
2021/11/09 08:40:33;;;;;;;4.00;3.10;;;21.10;56.70;;;;;;5083008;28;20669;-42
2021/11/09 08:43:04;;;;;;;5.00;3.33;;;21.10;56.60;;;;;;5080810;28;20221;-45
2021/11/09 08:45:40;;;;;;;4.18;3.40;;;21.00;56.60;;;;;;5079438;28;20198;-43
2021/11/09 08:48:13;;;;;;;4.47;3.53;;;21.00;56.60;;;;;;5081894;28;20225;-42
2021/11/09 08:50:48;;;;;;;3.60;3.30;;;21.00;56.50;;;;;;5082872;28;20194;-41
2021/11/09 08:53:21;;;;;;;4.32;3.17;;;21.00;56.50;;;;;;5085498;28;20217;-42
2021/11/09 08:56:13;;;;;;;3.50;3.20;;;21.00;56.50;;;;;;5085079;28;20197;-42
2021/11/09 09:04:27;;;;;;;3.97;3.20;;;21.00;56.50;;;;;;5074499;28;20248;-44
2021/11/09 09:06:59;;;;;;;4.28;3.38;;;20.90;56.40;;;;;;5086076;28;20230;-44
2021/11/09 09:09:30;;;;;;;2.92;2.72;;;20.90;56.50;;;;;;5082473;28;20194;-42
2021/11/09 09:12:01;;;;;;;3.80;3.25;;;20.90;56.50;;;;;;5085097;28;20194;-42
2021/11/09 09:14:31;;;;;;;4.68;3.30;;;21.00;56.60;;;;;;5085052;28;20226;-43
2021/11/09 09:17:05;;;;;;;3.80;3.35;;;20.90;56.50;;;;;;5087756;28;20946;-42
2021/11/09 09:19:40;;;;;;;3.38;3.03;;;20.90;56.50;;;;;;5086907;28;20200;-42
2021/11/09 09:22:12;;;;;;;3.42;3.03;;;20.90;56.50;;;;;;5085915;28;20565;-43
2021/11/09 09:25:06;;;;;;;3.47;2.72;;;20.90;56.40;;;;;;5084090;28;20260;-41
2021/11/09 09:27:52;;;;;;;3.80;3.17;;;20.90;57.00;;;;;;5085039;28;20230;-42
2021/11/09 09:30:34;;;;;;;3.72;3.38;;;20.90;56.40;;;;;;5085295;28;20198;-44
2021/11/09 09:33:39;;;;;;;3.40;3.13;;;20.90;56.30;;;;;;5084046;28;20217;-42
2021/11/09 09:53:02;;;;;;;3.38;3.08;;;20.80;56.30;;;;;;5083140;28;20229;-44
2021/11/09 09:55:44;;;;;;;3.28;2.72;;;20.80;56.30;;;;;;5086279;28;20198;-42
2021/11/09 09:58:15;;;;;;;3.13;2.80;;;20.80;56.40;;;;;;5087786;28;20198;-42
2021/11/09 10:00:46;;;;;;;3.55;3.22;;;20.80;56.40;;;;;;5085007;28;20657;-43
2021/11/09 10:03:17;;;;;;;3.17;2.88;;;20.70;56.40;;;;;;5084922;28;20728;-41
2021/11/09 10:05:49;;;;;;;3.10;2.80;;;20.70;56.40;;;;;;5082661;28;20202;-42
2021/11/09 10:08:21;;;;;;;3.15;2.85;;;20.70;56.30;;;;;;5083844;28;20225;-43
2021/11/09 10:10:52;;;;;;;2.90;2.70;;;20.80;56.40;;;;;;5084250;28;20198;-42
2021/11/09 10:13:23;;;;;;;3.33;3.03;;;20.70;56.30;;;;;;5083435;28;20216;-44
2021/11/09 10:15:55;;;;;;;3.28;2.97;;;20.70;56.20;;;;;;5086176;28;20199;-44
2021/11/09 10:18:27;;;;;;;3.63;3.08;;;20.70;56.20;;;;;;5084634;28;20885;-45
2021/11/09 10:21:01;;;;;;;3.10;2.80;;;20.70;56.20;;;;;;5083110;28;20190;-44
2021/11/09 10:23:34;;;;;;;3.80;3.03;;;20.70;56.20;;;;;;5083236;28;20607;-42
2021/11/09 10:26:13;;;;;;;3.47;3.08;;;20.70;56.20;;;;;;5081273;28;20202;-41
2021/11/09 10:28:44;;;;;;;3.13;2.92;;;20.70;56.20;;;;;;5082546;28;20199;-43
2021/11/09 10:31:17;;;;;;;3.90;3.00;;;20.70;56.20;;;;;;5087067;28;20253;-45
2021/11/09 10:33:50;;;;;;;3.22;2.92;;;20.60;56.10;;;;;;5083494;28;20220;-45
2021/11/09 10:36:26;;;;;;;3.50;3.20;;;20.60;56.10;;;;;;5084711;28;20287;-42
2021/11/09 10:39:14;;;;;;;3.03;2.47;;;20.60;56.20;;;;;;5083968;28;20194;-43
2021/11/09 10:42:05;;;;;;;3.17;2.90;;;20.60;56.20;;;;;;5083296;28;20562;-45
2021/11/09 10:44:37;;;;;;;3.10;2.80;;;20.60;56.20;;;;;;5082840;28;20222;-42
2021/11/09 10:47:23;;;;;;;3.38;2.78;;;20.60;56.20;;;;;;5083151;28;20222;-44
2021/11/09 10:49:55;;;;;;;3.20;2.90;;;20.60;56.20;;;;;;5081071;28;20194;-46
2021/11/09 10:52:31;;;;;;;3.15;2.85;;;20.60;56.20;;;;;;5081902;28;20313;-46
2021/11/09 10:55:08;;;;;;;2.70;2.50;;;20.60;56.20;;;;;;5085081;28;20293;-44
2021/11/09 10:57:51;;;;;;;3.33;3.03;;;20.60;56.20;;;;;;5084199;28;20227;-46
2021/11/09 11:03:34;;;;;;;2.92;2.67;;;20.60;56.50;;;;;;5084170;28;20222;-46
2021/11/09 11:06:16;;;;;;;3.30;3.10;;;20.50;56.10;;;;;;5085951;28;20197;-43
2021/11/09 11:08:49;;;;;;;3.58;3.13;;;20.50;56.10;;;;;;5083838;28;20194;-42
2021/11/09 11:11:27;;;;;;;2.65;2.45;;;20.50;56.10;;;;;;5083141;28;20277;-43
2021/11/09 11:14:09;;;;;;;3.35;2.85;;;20.50;56.10;;;;;;5078009;28;20231;-45
2021/11/09 11:16:44;;;;;;;3.08;2.58;;;20.60;56.20;;;;;;5083995;28;20661;-42
2021/11/09 11:19:16;;;;;;;3.20;2.90;;;20.50;56.10;;;;;;5081469;28;20297;-46
2021/11/09 11:21:49;;;;;;;3.13;2.92;;;20.50;56.10;;;;;;5085514;28;20194;-48
2021/11/09 11:24:22;;;;;;;2.80;2.60;;;20.50;56.20;;;;;;5082591;28;20206;-46
2021/11/09 11:26:54;;;;;;;3.35;2.88;;;20.50;56.20;;;;;;5084305;28;20267;-44
2021/11/09 11:29:30;;;;;;;2.97;2.70;;;20.50;56.20;;;;;;5082579;28;20657;-42
2021/11/09 11:32:02;;;;;;;2.78;2.58;;;20.50;56.20;;;;;;5081373;28;20236;-44
2021/11/09 11:34:32;;;;;;;3.00;2.80;;;20.50;56.20;;;;;;5081816;28;20655;-46
2021/11/09 11:37:04;;;;;;;3.08;2.78;;;20.50;56.20;;;;;;5082819;28;20199;-42
2021/11/09 11:39:39;;;;;;;3.00;2.70;;;20.50;56.20;;;;;;5083605;28;20481;-44
2021/11/09 11:42:11;;;;;;;2.92;2.72;;;20.50;56.20;;;;;;5084660;28;20698;-44
2021/11/09 11:44:43;;;;;;;3.35;3.05;;;20.50;56.80;;;;;;5083067;28;20218;-42
2021/11/09 11:47:21;;;;;;;2.78;2.53;;;20.50;56.20;;;;;;5074078;28;20249;-42
2021/11/09 11:49:54;;;;;;;2.90;2.70;;;20.50;56.20;;;;;;5067783;28;20260;-44
2021/11/09 11:52:28;;;;;;;2.80;2.60;;;20.40;56.10;;;;;;5066721;28;20576;-45
2021/11/09 11:55:10;;;;;;;3.55;2.83;;;20.40;56.10;;;;;;5067238;28;20881;-47
2021/11/09 11:57:50;;;;;;;3.20;2.40;;;20.40;56.10;;;;;;5061988;28;20609;-44
2021/11/09 12:00:45;;;;;;;3.13;2.83;;;20.40;56.10;;;;;;5065637;28;20717;-46
2021/11/09 12:03:38;;;;;;;3.10;2.80;;;20.40;56.10;;;;;;5066449;28;20214;-45
2021/11/09 12:06:26;;;;;;;3.13;2.63;;;20.40;56.10;;;;;;5052029;28;20203;-45
2021/11/09 12:08:58;;;;;;;2.53;2.30;;;20.40;56.70;;;;;;5067681;28;20198;-46
2021/11/09 12:11:46;;;;;;;2.47;2.28;;;20.30;56.70;;;;;;5068483;28;20287;-43
2021/11/09 12:14:19;;;;;;;3.13;2.83;;;20.40;56.20;;;;;;5067208;28;20218;-42
2021/11/09 12:16:56;;;;;;;2.42;2.22;;;20.40;56.20;;;;;;5064560;28;20665;-46
2021/11/09 12:20:04;;;;;;;2.97;2.78;;;20.40;56.20;;;;;;5065490;28;20779;-45
2021/11/09 12:22:47;;;;;;;2.63;2.42;;;20.30;56.20;;;;;;5057592;28;20200;-43
2021/11/09 12:25:36;;;;;;;2.80;2.60;;;20.30;56.20;;;;;;5054829;28;20196;-47
2021/11/09 12:28:11;;;;;;;2.75;2.55;;;20.30;56.10;;;;;;5062811;28;20222;-44
2021/11/09 12:30:52;;;;;;;2.90;2.70;;;20.30;56.20;;;;;;5068666;28;20647;-45
2021/11/09 12:33:24;;;;;;;2.58;2.35;;;20.30;56.10;;;;;;5068359;28;20734;-47
2021/11/09 12:36:26;;;;;;;2.88;2.58;;;20.30;56.10;;;;;;5071479;28;20242;-43
2021/11/09 12:38:59;;;;;;;3.10;2.80;;;20.30;56.10;;;;;;5057061;28;20198;-44
2021/11/09 12:41:31;;;;;;;2.97;2.63;;;20.30;56.10;;;;;;5070280;28;20279;-42
2021/11/09 12:44:06;;;;;;;3.17;2.88;;;20.30;56.10;;;;;;5056491;28;20215;-44
2021/11/09 12:46:39;;;;;;;2.60;2.40;;;20.20;56.10;;;;;;5068390;28;20228;-45
2021/11/09 12:49:14;;;;;;;3.00;2.70;;;20.20;56.10;;;;;;5069820;28;20572;-45
2021/11/09 12:51:47;;;;;;;2.78;2.50;;;20.20;56.10;;;;;;5069698;28;20208;-43
2021/11/09 12:54:19;;;;;;;2.70;2.50;;;20.30;56.20;;;;;;5069396;28;20221;-45
2021/11/09 12:56:51;;;;;;;2.38;2.17;;;20.30;56.20;;;;;;5070710;28;20651;-44
2021/11/09 12:59:28;;;;;;;2.95;2.65;;;20.30;56.20;;;;;;5070729;28;20198;-44
2021/11/09 13:02:11;;;;;;;2.78;2.45;;;20.30;56.20;;;;;;5071458;28;20190;-45
2021/11/09 13:04:51;;;;;;;2.60;2.40;;;20.20;56.20;;;;;;5056354;28;20238;-46
2021/11/09 13:07:29;;;;;;;2.88;2.60;;;20.20;56.10;;;;;;5067646;28;20222;-50
2021/11/09 13:10:05;;;;;;;2.67;2.33;;;20.20;56.10;;;;;;5069294;28;20662;-43
2021/11/09 13:12:37;;;;;;;2.70;2.50;;;20.20;56.20;;;;;;5070340;28;20209;-44
2021/11/09 13:15:12;;;;;;;2.55;2.35;;;20.20;56.20;;;;;;5070435;28;20616;-46
2021/11/09 13:17:45;;;;;;;2.72;2.53;;;20.20;56.10;;;;;;5068709;28;20205;-44
2021/11/09 13:20:19;;;;;;;3.22;2.92;;;20.20;56.10;;;;;;5054274;28;20204;-43
2021/11/09 13:22:54;;;;;;;2.85;2.60;;;20.20;56.10;;;;;;5071844;28;20222;-45
2021/11/09 13:25:33;;;;;;;2.47;2.28;;;20.20;56.20;;;;;;5070106;28;20244;-43
2021/11/09 13:28:05;;;;;;;3.20;2.83;;;20.20;56.20;;;;;;5057979;28;20222;-46
2021/11/09 13:30:37;;;;;;;3.33;2.67;;;20.10;56.10;;;;;;5064023;28;20199;-43
2021/11/09 13:33:09;;;;;;;2.70;2.50;;;20.10;56.10;;;;;;5064770;28;20629;-47
2021/11/09 13:35:43;;;;;;;2.50;2.30;;;20.10;56.10;;;;;;5056234;28;20604;-43
2021/11/09 13:38:16;;;;;;;2.63;2.40;;;20.10;56.10;;;;;;5053615;28;20566;-46
2021/11/09 13:40:48;;;;;;;3.08;2.40;;;20.10;56.10;;;;;;5052496;28;20289;-43
2021/11/09 13:43:21;;;;;;;3.10;2.80;;;20.10;56.10;;;;;;5069536;28;21095;-43
2021/11/09 13:46:01;;;;;;;2.60;2.40;;;20.10;56.10;;;;;;5068648;28;20199;-44
2021/11/09 13:48:34;;;;;;;2.75;2.50;;;20.10;56.10;;;;;;5068428;28;20792;-44
2021/11/09 13:51:06;;;;;;;2.80;2.13;;;20.10;56.10;;;;;;5069209;28;20198;-45
2021/11/09 13:53:38;;;;;;;2.80;2.60;;;20.10;56.10;;;;;;5068167;28;20682;-43
2021/11/09 13:56:13;;;;;;;2.60;2.40;;;20.10;56.10;;;;;;5056643;28;20198;-44
2021/11/09 13:58:54;;;;;;;2.90;2.70;;;20.10;56.10;;;;;;5052152;28;20206;-44
2021/11/09 14:01:42;;;;;;;3.00;2.58;;;20.10;56.10;;;;;;5071099;28;20698;-44
2021/11/09 14:04:39;;;;;;;2.67;2.47;;;20.10;56.10;;;;;;5069876;28;20284;-42
2021/11/09 14:16:06;;;;;;;3.05;2.50;;;20.00;56.00;;;;;;5068571;28;20293;-44
2021/11/09 14:18:39;;;;;;;2.95;2.25;;;20.00;56.10;;;;;;5067730;28;20562;-44
2021/11/09 14:21:09;;;;;;;2.92;2.50;;;20.00;56.10;;;;;;5068783;28;20208;-44
2021/11/09 14:23:41;;;;;;;3.08;2.33;;;20.00;56.10;;;;;;5065916;28;20672;-43
2021/11/09 14:26:23;;;;;;;2.38;2.08;;;20.00;56.10;;;;;;5067953;28;20209;-43
2021/11/09 14:28:55;;;;;;;2.38;2.17;;;20.00;56.80;;;;;;5054143;28;20230;-43
2021/11/09 14:31:27;;;;;;;2.28;2.15;;;20.00;56.10;;;;;;5068573;28;20211;-43
2021/11/09 14:34:13;;;;;;;2.38;2.17;;;20.00;56.20;;;;;;5069097;28;20218;-42
2021/11/09 14:36:46;;;;;;;2.35;2.15;;;20.00;56.20;;;;;;5068883;28;20265;-44
2021/11/09 14:39:19;;;;;;;2.25;2.05;;;20.00;56.10;;;;;;5068779;28;20209;-42
2021/11/09 14:42:12;;;;;;;2.50;2.30;;;20.00;56.10;;;;;;5063965;28;20195;-44
2021/11/09 14:45:09;;;;;;;2.40;2.20;;;20.00;56.20;;;;;;5061636;28;20694;-42
2021/11/09 14:47:46;;;;;;;2.40;2.20;;;20.00;56.10;;;;;;5066724;28;20229;-44
2021/11/09 14:50:28;;;;;;;2.85;2.65;;;20.00;56.10;;;;;;5066257;28;20626;-44
2021/11/09 14:53:14;;;;;;;2.20;2.00;;;20.00;56.10;;;;;;5068381;28;20241;-42
2021/11/09 14:55:51;;;;;;;2.70;2.50;;;19.90;56.10;;;;;;5067751;28;20191;-44
2021/11/09 14:58:35;;;;;;;2.70;2.50;;;19.90;56.10;;;;;;5054748;28;20277;-42